createdAt,value
2023-02-11T00:00:04.209Z,11.07
2023-02-11T00:02:33.866Z,10.55
2023-02-11T00:05:02.613Z,11.70
2023-02-11T00:07:31.008Z,10.73
2023-02-11T00:09:58.963Z,11.38
2023-02-11T00:12:27.061Z,11.32
2023-02-11T00:14:56.370Z,12.02
2023-02-11T00:17:24.305Z,10.20
2023-02-11T00:19:53.273Z,10.15
2023-02-11T00:22:21.419Z,11.10
2023-02-11T00:24:49.521Z,11.13
2023-02-11T00:27:17.486Z,10.82
2023-02-11T00:29:46.158Z,11.93
2023-02-11T00:32:15.465Z,11.50
2023-02-11T00:34:43.669Z,11.23
2023-02-11T00:37:13.625Z,11.30
2023-02-11T00:39:43.082Z,12.32
2023-02-11T00:42:15.138Z,12.15
2023-02-11T00:44:43.289Z,10.93
2023-02-11T00:47:11.228Z,12.52
2023-02-11T00:49:41.255Z,12.55
2023-02-11T00:52:09.281Z,12.50
2023-02-11T00:54:37.279Z,14.48
2023-02-11T00:57:05.425Z,12.15
2023-02-11T00:59:33.504Z,14.10
2023-02-11T01:02:02.710Z,14.90
2023-02-11T01:04:30.732Z,11.07
2023-02-11T01:07:00.118Z,12.40
2023-02-11T01:09:27.967Z,11.02
2023-02-11T01:11:56.089Z,11.55
2023-02-11T01:14:24.319Z,13.27
2023-02-11T01:16:52.519Z,11.88
2023-02-11T01:19:22.447Z,12.75
2023-02-11T01:21:50.690Z,12.80
2023-02-11T01:24:20.278Z,13.80
2023-02-11T01:26:48.192Z,11.75
2023-02-11T01:29:16.071Z,13.20
2023-02-11T01:31:44.108Z,12.75
2023-02-11T01:34:12.090Z,12.45
2023-02-11T01:36:40.069Z,11.95
2023-02-11T01:39:08.562Z,12.90
2023-02-11T01:41:38.286Z,13.35
2023-02-11T01:44:30.557Z,11.77
2023-02-11T01:46:58.948Z,11.48
2023-02-11T01:49:31.040Z,13.70
2023-02-11T01:52:02.989Z,13.77
2023-02-11T01:54:52.763Z,11.77
2023-02-11T01:57:27.210Z,12.13
2023-02-11T02:00:08.445Z,12.35
2023-02-11T02:02:51.400Z,13.30
2023-02-11T02:05:27.303Z,12.77
2023-02-11T02:08:01.748Z,12.10
2023-02-11T02:10:31.265Z,12.10
2023-02-11T02:13:01.579Z,11.63
2023-02-11T02:15:32.877Z,12.55
2023-02-11T02:18:07.612Z,10.20
2023-02-11T02:21:23.404Z,12.00
2023-02-11T02:24:28.652Z,11.38
2023-02-11T02:27:24.886Z,11.05
2023-02-11T02:30:29.881Z,12.38
2023-02-11T02:33:21.919Z,9.73
2023-02-11T02:35:59.364Z,12.35
2023-02-11T02:38:32.509Z,11.48
2023-02-11T02:41:05.234Z,11.65
2023-02-11T02:43:35.436Z,11.07
2023-02-11T02:46:15.264Z,11.45
2023-02-11T02:48:45.821Z,11.15
2023-02-11T02:51:39.756Z,10.30
2023-02-11T02:54:33.297Z,11.48
2023-02-11T02:57:12.535Z,11.30
2023-02-11T02:59:51.450Z,11.98
2023-02-11T03:02:25.836Z,13.30
2023-02-11T03:05:03.003Z,13.95
2023-02-11T03:07:38.480Z,11.95
2023-02-11T03:10:10.232Z,11.20
2023-02-11T03:12:40.120Z,12.45
2023-02-11T03:15:09.245Z,11.95
2023-02-11T03:17:39.954Z,12.40
2023-02-11T03:20:13.952Z,12.77
2023-02-11T03:22:48.772Z,11.18
2023-02-11T03:25:17.713Z,12.07
2023-02-11T03:27:53.144Z,11.68
2023-02-11T03:30:26.483Z,10.95
2023-02-11T03:33:01.952Z,12.75
2023-02-11T03:35:37.037Z,10.85
2023-02-11T03:38:09.925Z,12.02
2023-02-11T03:40:40.318Z,13.07
2023-02-11T03:43:13.167Z,12.65
2023-02-11T03:45:41.533Z,12.80
2023-02-11T03:48:15.278Z,14.20
2023-02-11T03:50:47.572Z,12.25
2023-02-11T03:53:16.260Z,11.00
2023-02-11T03:55:45.508Z,12.93
2023-02-11T03:58:13.618Z,12.25
2023-02-11T04:00:43.665Z,11.90
2023-02-11T04:03:13.049Z,13.02
2023-02-11T04:05:41.795Z,11.25
2023-02-11T04:08:11.080Z,10.85
2023-02-11T04:10:39.038Z,12.57
2023-02-11T04:13:07.996Z,11.43
2023-02-11T04:15:35.866Z,9.82
2023-02-11T04:18:03.789Z,11.20
2023-02-11T04:20:31.799Z,10.48
2023-02-11T04:22:59.658Z,12.15
2023-02-11T04:25:29.201Z,12.45
2023-02-11T04:27:57.180Z,10.20
2023-02-11T04:30:25.156Z,12.50
2023-02-11T04:32:54.204Z,11.88
2023-02-11T04:35:22.737Z,11.15
2023-02-11T04:37:50.635Z,12.00
2023-02-11T04:40:18.790Z,11.02
2023-02-11T04:42:48.298Z,11.20
2023-02-11T04:45:16.279Z,11.35
2023-02-11T04:47:44.211Z,11.85
2023-02-11T04:50:12.138Z,10.07
2023-02-11T04:52:40.130Z,9.90
2023-02-11T04:55:08.505Z,10.43
2023-02-11T04:57:36.484Z,11.32
2023-02-11T05:00:07.415Z,9.88
2023-02-11T05:02:35.281Z,11.95
2023-02-11T05:05:03.223Z,11.65
2023-02-11T05:07:31.112Z,10.35
2023-02-11T05:09:58.984Z,10.77
2023-02-11T05:12:26.932Z,9.07
2023-02-11T05:14:54.868Z,9.77
2023-02-11T05:17:24.265Z,9.90
2023-02-11T05:19:52.131Z,9.30
2023-02-11T05:22:21.284Z,9.73
2023-02-11T05:24:49.563Z,10.65
2023-02-11T05:27:17.691Z,10.15
2023-02-11T05:29:46.112Z,8.35
2023-02-11T05:32:13.961Z,9.15
2023-02-11T05:34:43.287Z,9.10
2023-02-11T05:37:11.220Z,10.85
2023-02-11T05:39:39.235Z,9.07
2023-02-11T05:42:07.469Z,9.57
2023-02-11T05:44:35.377Z,10.90
2023-02-11T05:47:03.314Z,10.85
2023-02-11T05:49:31.559Z,11.35
2023-02-11T05:52:00.743Z,9.85
2023-02-11T05:54:28.667Z,11.18
2023-02-11T05:56:56.531Z,9.55
2023-02-11T05:59:24.659Z,8.88
2023-02-11T06:01:52.616Z,8.77
2023-02-11T06:04:20.510Z,10.65
2023-02-11T06:06:48.434Z,10.43
2023-02-11T06:09:17.665Z,9.52
2023-02-11T06:11:45.555Z,10.32
2023-02-11T06:14:14.339Z,9.63
2023-02-11T06:16:42.207Z,9.35
2023-02-11T06:19:10.164Z,8.05
2023-02-11T06:21:43.898Z,9.02
2023-02-11T06:24:12.549Z,9.02
2023-02-11T06:26:41.902Z,10.80
2023-02-11T06:29:09.985Z,9.10
2023-02-11T06:31:39.009Z,8.50
2023-02-11T06:34:07.096Z,10.25
2023-02-11T06:36:35.095Z,8.40
2023-02-11T06:39:03.072Z,10.90
2023-02-11T06:41:31.290Z,9.70
2023-02-11T06:44:00.751Z,10.07
2023-02-11T06:46:28.717Z,9.60
2023-02-11T06:48:56.651Z,10.45
2023-02-11T06:51:25.608Z,11.75
2023-02-11T06:53:53.570Z,11.13
2023-02-11T06:56:23.452Z,10.55
2023-02-11T06:58:54.633Z,11.00
2023-02-11T07:01:25.511Z,9.95
2023-02-11T07:03:53.579Z,10.23
2023-02-11T07:06:25.718Z,11.40
2023-02-11T07:08:54.096Z,10.93
2023-02-11T07:11:25.313Z,12.48
2023-02-11T07:13:54.980Z,11.65
2023-02-11T07:16:24.660Z,10.15
2023-02-11T07:18:52.656Z,14.23
2023-02-11T07:21:22.480Z,12.85
2023-02-11T07:23:50.636Z,12.75
2023-02-11T07:26:21.186Z,12.18
2023-02-11T07:28:49.343Z,13.00
2023-02-11T07:31:18.890Z,12.35
2023-02-11T07:33:48.418Z,12.55
2023-02-11T07:36:17.429Z,12.68
2023-02-11T07:38:46.057Z,12.95
2023-02-11T07:41:16.845Z,12.82
2023-02-11T07:43:45.740Z,13.50
2023-02-11T07:46:15.782Z,13.48
2023-02-11T07:48:43.842Z,12.95
2023-02-11T07:51:15.467Z,10.45
2023-02-11T07:53:44.764Z,13.38
2023-02-11T07:56:14.549Z,13.98
2023-02-11T07:58:43.663Z,13.10
2023-02-11T08:01:16.447Z,12.35
2023-02-11T08:03:47.506Z,12.95
2023-02-11T08:06:20.249Z,12.93
2023-02-11T08:08:48.978Z,14.35
2023-02-11T08:11:20.167Z,13.18
2023-02-11T08:13:48.560Z,13.65
2023-02-11T08:16:22.411Z,12.77
2023-02-11T08:18:52.020Z,15.15
2023-02-11T08:21:21.665Z,13.82
2023-02-11T08:23:50.440Z,15.30
2023-02-11T08:26:20.676Z,15.13
2023-02-11T08:28:51.311Z,14.05
2023-02-11T08:31:21.238Z,13.32
2023-02-11T08:33:49.838Z,14.15
2023-02-11T08:36:19.726Z,15.25
2023-02-11T08:38:49.212Z,13.82
2023-02-11T08:41:18.278Z,13.02
2023-02-11T08:43:47.180Z,14.88
2023-02-11T08:46:17.344Z,13.60
2023-02-11T08:48:46.195Z,14.50
2023-02-11T08:51:16.890Z,14.30
2023-02-11T08:53:45.392Z,14.20
2023-02-11T08:56:19.502Z,15.35
2023-02-11T08:58:49.356Z,14.85
2023-02-11T09:01:22.324Z,16.13
2023-02-11T09:03:53.860Z,15.55
2023-02-11T09:06:24.213Z,14.00
2023-02-11T09:08:54.510Z,15.98
2023-02-11T09:11:29.313Z,15.43
2023-02-11T09:13:57.265Z,16.40
2023-02-11T09:16:27.518Z,17.65
2023-02-11T09:18:57.863Z,15.07
2023-02-11T09:21:26.279Z,14.38
2023-02-11T09:23:54.388Z,15.13
2023-02-11T09:26:25.289Z,15.73
2023-02-11T09:28:53.661Z,14.88
2023-02-11T09:31:23.886Z,16.40
2023-02-11T09:33:55.218Z,15.77
2023-02-11T09:36:25.749Z,13.40
2023-02-11T09:38:54.218Z,16.77
2023-02-11T09:41:43.859Z,15.27
2023-02-11T09:44:53.536Z,15.95
2023-02-11T09:47:56.083Z,17.13
2023-02-11T09:50:58.753Z,15.27
2023-02-11T09:53:57.193Z,15.48
2023-02-11T09:59:24.301Z,18.25
2023-02-11T10:02:24.490Z,17.10
2023-02-11T10:08:27.714Z,16.95
2023-02-11T10:18:48.768Z,18.15
2023-02-11T10:21:46.611Z,16.85
2023-02-11T10:24:18.100Z,16.45
2023-02-11T10:26:51.561Z,15.82
2023-02-11T10:30:15.164Z,17.00
2023-02-11T10:33:00.245Z,15.57
2023-02-11T10:35:29.889Z,16.75
2023-02-11T10:38:04.709Z,17.15
2023-02-11T10:40:46.817Z,17.10
2023-02-11T10:43:22.271Z,18.23
2023-02-11T10:45:51.374Z,16.60
2023-02-11T10:48:50.591Z,16.13
2023-02-11T10:52:33.219Z,16.95
2023-02-11T10:55:26.112Z,17.23
2023-02-11T10:57:58.882Z,20.20
2023-02-11T11:01:23.408Z,17.80
2023-02-11T11:04:06.006Z,17.42
2023-02-11T11:08:14.275Z,16.20
2023-02-11T11:14:38.953Z,14.55
2023-02-11T11:21:03.161Z,15.32
2023-02-11T11:23:52.637Z,16.55
2023-02-11T11:27:37.907Z,15.52
2023-02-11T11:30:23.092Z,17.15
2023-02-11T11:32:57.233Z,16.77
2023-02-11T11:35:27.887Z,15.10
2023-02-11T11:38:01.766Z,14.30
2023-02-11T11:40:32.006Z,16.88
2023-02-11T11:43:15.952Z,15.35
2023-02-11T11:45:55.597Z,14.82
2023-02-11T11:48:28.649Z,20.85
2023-02-11T11:51:00.552Z,19.95
2023-02-11T11:53:38.785Z,18.38
2023-02-11T11:56:10.161Z,15.38
2023-02-11T11:58:39.727Z,15.30
2023-02-11T12:01:18.141Z,17.25
2023-02-11T12:04:25.365Z,14.38
2023-02-11T12:07:03.746Z,14.57
2023-02-11T12:09:41.769Z,15.30
2023-02-11T12:12:21.544Z,12.63
2023-02-11T12:15:04.568Z,15.05
2023-02-11T12:17:52.315Z,13.65
2023-02-11T12:20:32.694Z,15.85
2023-02-11T12:23:22.659Z,16.45
2023-02-11T12:25:57.940Z,16.58
2023-02-11T12:28:38.354Z,16.50
2023-02-11T12:31:22.064Z,15.48
2023-02-11T12:34:28.274Z,14.55
2023-02-11T12:37:07.537Z,14.48
2023-02-11T12:39:45.034Z,14.77
2023-02-11T12:43:02.602Z,13.20
2023-02-11T12:45:47.879Z,14.85
2023-02-11T12:49:01.002Z,13.90
2023-02-11T12:51:52.120Z,12.95
2023-02-11T12:54:25.882Z,13.30
2023-02-11T12:56:59.207Z,13.82
2023-02-11T12:59:35.801Z,12.10
2023-02-11T13:02:18.461Z,10.25
2023-02-11T13:04:51.426Z,10.88
2023-02-11T13:07:26.975Z,10.95
2023-02-11T13:10:01.992Z,9.38
2023-02-11T13:12:50.849Z,11.30
2023-02-11T13:15:19.048Z,11.50
2023-02-11T13:17:55.681Z,11.15
2023-02-11T13:20:36.385Z,11.68
2023-02-11T13:23:12.298Z,11.07
2023-02-11T13:25:49.095Z,11.02
2023-02-11T13:28:32.250Z,12.82
2023-02-11T13:31:03.431Z,10.77
2023-02-11T13:33:37.496Z,11.50
2023-02-11T13:36:15.640Z,11.15
2023-02-11T13:38:54.520Z,11.07
2023-02-11T13:41:27.949Z,10.35
2023-02-11T13:44:05.194Z,10.93
2023-02-11T13:46:50.760Z,11.38
2023-02-11T13:49:22.202Z,12.05
2023-02-11T13:51:51.122Z,11.63
2023-02-11T13:54:29.411Z,11.48
2023-02-11T13:57:26.320Z,11.63
2023-02-11T13:59:56.036Z,11.68
2023-02-11T14:02:45.904Z,12.80
2023-02-11T14:05:49.826Z,12.10
2023-02-11T14:08:43.777Z,11.00
2023-02-11T14:11:44.787Z,12.75
2023-02-11T14:14:25.503Z,11.63
2023-02-11T14:17:31.722Z,11.98
2023-02-11T14:20:00.430Z,13.02
2023-02-11T14:22:31.632Z,10.73
2023-02-11T14:25:01.840Z,12.57
2023-02-11T14:27:38.122Z,12.52
2023-02-11T14:30:30.366Z,12.10
2023-02-11T14:33:24.592Z,13.43
2023-02-11T14:36:01.890Z,12.07
2023-02-11T14:38:40.392Z,11.70
2023-02-11T14:41:11.926Z,12.88
2023-02-11T14:43:45.303Z,12.65
2023-02-11T14:46:15.804Z,12.05
2023-02-11T14:48:47.697Z,12.63
2023-02-11T14:51:19.750Z,11.85
2023-02-11T14:53:52.678Z,11.38
2023-02-11T14:56:24.583Z,13.27
2023-02-11T14:58:55.030Z,12.30
2023-02-11T15:01:30.164Z,11.73
2023-02-11T15:03:58.714Z,11.40
2023-02-11T15:06:31.519Z,12.82
2023-02-11T15:09:03.585Z,11.32
2023-02-11T15:11:34.958Z,11.70
2023-02-11T15:14:11.932Z,12.13
2023-02-11T15:16:43.825Z,12.38
2023-02-11T15:19:24.363Z,12.73
2023-02-11T15:21:53.833Z,11.73
2023-02-11T15:24:30.600Z,12.15
2023-02-11T15:27:00.352Z,10.50
2023-02-11T15:29:37.574Z,11.88
2023-02-11T15:32:08.024Z,11.88
2023-02-11T15:34:36.897Z,11.85
2023-02-11T15:37:05.399Z,12.52
2023-02-11T15:39:37.419Z,12.30
2023-02-11T15:42:20.233Z,11.35
2023-02-11T15:44:56.604Z,11.63
2023-02-11T15:47:27.888Z,16.00
2023-02-11T15:49:56.523Z,22.10
2023-02-11T15:52:26.975Z,12.38
2023-02-11T15:54:57.252Z,17.88
2023-02-11T15:57:27.613Z,25.17
2023-02-11T15:59:58.704Z,23.67
2023-02-11T16:02:31.463Z,30.38
2023-02-11T16:05:01.250Z,24.30
2023-02-11T16:07:41.019Z,20.40
2023-02-11T16:10:24.333Z,21.58
2023-02-11T16:12:54.698Z,20.10
2023-02-11T16:15:45.005Z,27.13
2023-02-11T16:18:37.692Z,19.85
2023-02-11T16:21:08.281Z,33.70
2023-02-11T16:23:39.016Z,33.35
2023-02-11T16:26:13.325Z,25.73
2023-02-11T16:28:42.029Z,20.98
2023-02-11T16:31:11.441Z,19.65
2023-02-11T16:33:39.554Z,28.60
2023-02-11T16:36:13.006Z,21.55
2023-02-11T16:38:40.928Z,23.38
2023-02-11T16:41:11.781Z,33.05
2023-02-11T16:43:40.181Z,19.45
2023-02-11T16:46:09.240Z,33.60
2023-02-11T16:48:39.119Z,45.42
2023-02-11T16:51:09.225Z,23.23
2023-02-11T16:53:37.241Z,16.92
2023-02-11T16:56:05.764Z,17.33
2023-02-11T16:58:33.825Z,15.88
2023-02-11T17:01:02.061Z,17.02
2023-02-11T17:03:31.332Z,15.70
2023-02-11T17:06:02.958Z,15.95
2023-02-11T17:08:31.147Z,18.45
2023-02-11T17:10:59.073Z,18.05
2023-02-11T17:13:27.192Z,17.38
2023-02-11T17:15:55.405Z,21.95
2023-02-11T17:18:23.493Z,18.50
2023-02-11T17:20:51.485Z,16.83
2023-02-11T17:23:20.743Z,24.20
2023-02-11T17:25:56.368Z,31.92
2023-02-11T17:28:24.366Z,17.05
2023-02-11T17:30:52.337Z,14.68
2023-02-11T17:33:21.534Z,15.93
2023-02-11T17:35:49.699Z,15.70
2023-02-11T17:38:20.284Z,13.40
2023-02-11T17:40:57.286Z,14.73
2023-02-11T17:43:25.591Z,16.08
2023-02-11T17:45:54.889Z,15.55
2023-02-11T17:48:23.277Z,16.40
2023-02-11T17:50:51.446Z,14.75
2023-02-11T17:53:20.652Z,17.85
2023-02-11T17:55:49.908Z,15.05
2023-02-11T17:58:18.052Z,19.13
2023-02-11T18:00:46.683Z,17.13
2023-02-11T18:03:14.623Z,17.15
2023-02-11T18:05:42.524Z,17.52
2023-02-11T18:08:11.518Z,16.00
2023-02-11T18:10:42.181Z,18.92
2023-02-11T18:13:10.092Z,16.20
2023-02-11T18:15:38.091Z,19.50
2023-02-11T18:18:06.093Z,17.08
2023-02-11T18:20:34.321Z,16.90
2023-02-11T18:23:02.549Z,14.75
2023-02-11T18:25:30.890Z,15.50
2023-02-11T18:28:00.201Z,14.10
2023-02-11T18:30:28.997Z,13.57
2023-02-11T18:32:57.202Z,20.58
2023-02-11T18:35:25.241Z,25.10
2023-02-11T18:37:53.481Z,22.13
2023-02-11T18:40:21.564Z,20.88
2023-02-11T18:42:49.748Z,17.90
2023-02-11T18:45:19.366Z,16.92
2023-02-11T18:47:47.560Z,25.77
2023-02-11T18:50:16.061Z,21.63
2023-02-11T18:52:44.004Z,17.83
2023-02-11T18:55:11.917Z,25.42
2023-02-11T18:57:40.063Z,25.13
2023-02-11T19:00:10.181Z,32.83
2023-02-11T19:02:39.629Z,18.73
2023-02-11T19:05:08.229Z,39.72
2023-02-11T19:07:36.275Z,20.63
2023-02-11T19:10:04.785Z,16.98
2023-02-11T19:12:33.105Z,19.38
2023-02-11T19:15:01.745Z,30.52
2023-02-11T19:17:29.850Z,43.75
2023-02-11T19:19:59.683Z,23.25
2023-02-11T19:22:28.301Z,21.88
2023-02-11T19:24:56.218Z,19.80
2023-02-11T19:27:24.100Z,22.50
2023-02-11T19:29:52.786Z,11.93
2023-02-11T19:32:20.760Z,10.90
2023-02-11T19:34:48.821Z,17.13
2023-02-11T19:37:18.176Z,21.88
2023-02-11T19:39:46.390Z,19.60
2023-02-11T19:42:14.844Z,13.57
2023-02-11T19:44:43.262Z,26.77
2023-02-11T19:47:12.590Z,17.25
2023-02-11T19:49:40.956Z,11.52
2023-02-11T19:52:09.480Z,12.35
2023-02-11T19:54:39.136Z,12.77
2023-02-11T19:57:07.193Z,13.48
2023-02-11T19:59:35.841Z,14.48
2023-02-11T20:02:04.049Z,10.68
2023-02-11T20:04:33.911Z,13.25
2023-02-11T20:07:02.556Z,13.00
2023-02-11T20:09:31.807Z,12.15
2023-02-11T20:12:02.291Z,11.40
2023-02-11T20:14:30.481Z,15.15
2023-02-11T20:16:58.777Z,16.65
2023-02-11T20:19:27.956Z,9.43
2023-02-11T20:21:56.321Z,10.43
2023-02-11T20:24:27.386Z,9.05
2023-02-11T20:26:58.912Z,9.40
2023-02-11T20:29:31.123Z,9.27
2023-02-11T20:31:59.319Z,11.60
2023-02-11T20:34:28.126Z,8.45
2023-02-11T20:36:56.752Z,6.65
2023-02-11T20:39:26.923Z,8.02
2023-02-11T20:41:56.690Z,7.13
2023-02-11T20:44:25.530Z,6.15
2023-02-11T20:46:55.707Z,7.25
2023-02-11T20:49:25.479Z,5.70
2023-02-11T20:51:54.396Z,16.45
2023-02-11T20:54:24.985Z,5.30
2023-02-11T20:56:55.462Z,5.75
2023-02-11T20:59:26.933Z,8.57
2023-02-11T21:01:58.313Z,7.65
2023-02-11T21:04:28.412Z,7.72
2023-02-11T21:06:58.523Z,6.30
2023-02-11T21:09:34.436Z,9.30
2023-02-11T21:12:03.831Z,8.73
2023-02-11T21:14:53.694Z,14.77
2023-02-11T21:17:28.550Z,7.93
2023-02-11T21:20:01.715Z,5.25
2023-02-11T21:22:30.950Z,6.05
2023-02-11T21:25:06.244Z,5.72
2023-02-11T21:27:34.701Z,6.47
2023-02-11T21:30:14.808Z,18.35
2023-02-11T21:32:50.936Z,23.25
2023-02-11T21:35:22.264Z,13.00
2023-02-11T21:38:13.038Z,23.70
2023-02-11T21:40:44.118Z,8.50
2023-02-11T21:43:13.900Z,9.82
2023-02-11T21:45:48.472Z,9.82
2023-02-11T21:48:19.181Z,9.35
2023-02-11T21:50:50.732Z,10.82
2023-02-11T21:53:26.926Z,17.25
2023-02-11T21:56:05.902Z,6.38
2023-02-11T21:58:35.491Z,7.90
2023-02-11T22:01:11.792Z,7.00
2023-02-11T22:03:47.182Z,5.30
2023-02-11T22:06:19.097Z,3.50
2023-02-11T22:08:51.086Z,5.65
2023-02-11T22:11:23.406Z,5.55
2023-02-11T22:13:56.560Z,9.85
2023-02-11T22:16:26.036Z,4.95
2023-02-11T22:18:58.790Z,9.40
2023-02-11T22:21:37.238Z,6.15
2023-02-11T22:24:06.299Z,9.73
2023-02-11T22:26:34.625Z,14.20
2023-02-11T22:29:02.818Z,12.93
2023-02-11T22:31:40.632Z,9.65
2023-02-11T22:34:12.532Z,9.80
2023-02-11T22:36:42.734Z,18.35
2023-02-11T22:39:14.311Z,10.68
2023-02-11T22:41:42.824Z,4.38
2023-02-11T22:44:11.026Z,7.95
2023-02-11T22:46:39.351Z,11.35
2023-02-11T22:49:08.383Z,14.77
2023-02-11T22:51:37.688Z,14.02
2023-02-11T22:54:08.442Z,8.40
2023-02-11T22:56:37.546Z,5.03
2023-02-11T22:59:07.799Z,8.98
2023-02-11T23:01:36.859Z,6.50
2023-02-11T23:04:07.778Z,6.68
2023-02-11T23:06:38.606Z,4.32
2023-02-11T23:09:07.585Z,5.47
2023-02-11T23:11:36.555Z,5.20
2023-02-11T23:14:05.335Z,5.43
2023-02-11T23:16:36.202Z,5.13
2023-02-11T23:19:07.147Z,4.75
2023-02-11T23:21:39.363Z,3.75
2023-02-11T23:24:09.945Z,6.25
2023-02-11T23:26:39.880Z,4.22
2023-02-11T23:29:09.202Z,3.47
2023-02-11T23:31:39.884Z,4.10
2023-02-11T23:34:09.399Z,3.45
2023-02-11T23:36:38.935Z,3.40
2023-02-11T23:39:07.615Z,3.55
2023-02-11T23:41:36.221Z,3.90
2023-02-11T23:44:04.197Z,2.90
2023-02-11T23:46:32.142Z,4.18
2023-02-11T23:49:01.116Z,4.05
2023-02-11T23:51:29.905Z,3.17
2023-02-11T23:53:59.912Z,3.65
2023-02-11T23:56:29.390Z,3.45
2023-02-11T23:58:58.936Z,3.70
